Hauptseite
METAR-TAF:

METAR-TAF

Flughäfen :

Flughafen Kosrae

Kosrae, Mikronesien

Breite: 05-21N, Länge: 162-57E, Höhe: 3 m

Beobachtung

Neuester Wetterbericht von vor 20 Minuten, um 02:50 UTC
Wind 13 kt aus Nord/Nordost
Temperatur 31°C
Luftfeuchtigkeit 66%
Luftdruck 1009 hPa
Sichtweite: 16.1 km
Aufgelockert bewölkt in der Höhe von 13000 ft
Geschlossene Wolkendecke in der Höhe von 30000 ft

METAR: PTSA 200250Z 02013KT 10SM SCT0223 SCT130 OVC300 31/24 A2980

Zeit: 14:10 (03:10 UTC)

Prognose

Neuester Wetterbericht von vor 3 Stunden und 38 Minuten, um 23:32 UTC
Gültige Prognose vom 20 um 00 UTC bis 20 um 24 UTC
Wind 10 kt aus Nordost
Sichtweite: 10 km
Aufgelockert bewölkt in der Höhe von 2100 ft
Aufgelockert bewölkt in der Höhe von 13000 ft
Durchbrochene Bewölkung in der Höhe von 30000 ft
Schauer in der Nähe

TAF: PTSA 192332Z 2000/2024 05010KT P6SM VCSH SCT021 SCT130 BKN300

Wetterbeobachtungen und Prognosen von mehr als 4000 Flughäfen (METAR und TAF Bericht).

Die verfügbaren Stationen werden durch gelbe und rote Markierungen auf der Karte dargestellt.

Führen Sie die Maus auf sie, um den Namen der Station zu sehen.

Darauf klicken, um die Beobachtung von Wetterbeobachtungen und Prognosen zu sehen.

Um die Karte zu ändern : klicken Sie auf den grünen Tasten mit einem schwarzen Kreuz Zum Vergrößern, auf den grünen Button mit einem Gedankenstrich zu verkleinern, oder auf die grünen Pfeile für benachbarte Karten.


METAR-TAF: